CND4 weather

Stanhope Municipal Airport
Haliburton, Ontario, Canada

Public forecast

Using degrees Celsius for public forecast. Weather courtesy of forecast.io.

Closest aviation weather report (METAR) to Stanhope Municipal Airport

Closest report is Muskoka Airport, 29.3 nm (54.3 km) WSW. Retrieved 2020/04/06 18:00 UTC (53 minutes ago):

CYQA 061800Z AUTO 28007KT 260V320 9SM FEW110 SCT140 10/M11 A3006 RMK SLP190

Closest aviation forecast (TAF) to Stanhope Municipal Airport

Closest forecast is Muskoka Airport, 29.3 nm (54.3 km) WSW. Retrieved 2020/04/06 14:42 UTC (4 hours ago):

TAF CYQA 061340Z 0614/0702 25006KT P6SM FEW120 FM061700 27010KT P6SM BKN120 FM070000 28007KT P6SM BKN080 OVC120 RMK FCST BASED ON AUTO OBS NXT FCST BY 062000Z